Time;durP1;ratioP1;P1;durP2;ratioP2;P2;SDS_P1;SDS_P2;PMS_P1;PMS_P2;Temp;Humidity;BMP_temperature;BMP_pressure;BME280_temperature;BME280_humidity;BME280_pressure;Samples;Min_cycle;Max_cycle;Signal;HPM_P1;HPM_P2
2023/07/22 00:02:14;;;;;;;11.33;6.00;;;;;;;27.06;60.08;100686.25;5070654;28;20109;-62
2023/07/22 00:04:45;;;;;;;13.20;6.00;;;;;;;27.01;60.20;100682.19;5059257;28;20071;-62
2023/07/22 00:07:16;;;;;;;10.10;6.00;;;;;;;27.10;59.99;100687.69;5071794;28;20156;-62
2023/07/22 00:09:46;;;;;;;12.77;5.80;;;;;;;27.09;59.56;100672.59;5061662;28;20104;-61
2023/07/22 00:12:17;;;;;;;9.67;6.23;;;;;;;27.26;60.65;100679.34;5071106;28;20477;-64
2023/07/22 00:14:49;;;;;;;14.03;6.47;;;;;;;27.43;59.89;100678.00;5060191;28;20444;-61
2023/07/22 00:17:20;;;;;;;14.53;6.20;;;;;;;27.56;60.39;100671.59;5072431;28;20130;-62
2023/07/22 00:19:51;;;;;;;13.27;6.53;;;;;;;27.52;59.02;100666.50;5059980;28;20544;-61
2023/07/22 00:22:22;;;;;;;16.60;7.37;;;;;;;27.47;60.19;100674.06;5070789;28;20425;-64
2023/07/22 00:24:53;;;;;;;15.07;7.37;;;;;;;27.39;59.74;100676.53;5060524;28;20059;-62
2023/07/22 00:27:23;;;;;;;18.00;6.63;;;;;;;27.29;60.01;100672.88;5070912;28;20069;-62
2023/07/22 00:29:56;;;;;;;13.90;7.27;;;;;;;27.31;60.58;100673.59;5059885;28;20487;-61
2023/07/22 00:32:29;;;;;;;17.27;6.77;;;;;;;27.41;60.22;100674.56;5069952;28;20083;-62
2023/07/22 00:35:00;;;;;;;16.03;6.73;;;;;;;27.54;59.75;100675.28;5059579;28;20044;-63
2023/07/22 00:37:30;;;;;;;16.40;7.90;;;;;;;27.65;59.39;100676.22;5072614;28;20048;-60
2023/07/22 00:40:03;;;;;;;15.80;7.00;;;;;;;27.77;60.50;100664.50;5061518;28;20046;-59
2023/07/22 00:42:34;;;;;;;13.77;7.60;;;;;;;27.82;60.31;100651.56;5069931;28;20480;-59
2023/07/22 00:45:07;;;;;;;16.20;7.50;;;;;;;28.24;60.40;100674.97;5059939;28;20047;-62
2023/07/22 00:47:38;;;;;;;14.60;7.03;;;;;;;28.26;58.22;100649.69;5069171;28;20148;-63
2023/07/22 00:50:10;;;;;;;21.40;9.80;;;;;;;28.27;58.40;100667.50;5060814;28;20062;-62
2023/07/22 00:52:40;;;;;;;15.87;7.23;;;;;;;28.38;59.05;100648.63;5070328;28;20048;-62
2023/07/22 00:55:11;;;;;;;12.13;6.50;;;;;;;28.31;58.19;100655.53;5059933;28;20055;-63
2023/07/22 00:57:42;;;;;;;11.90;6.87;;;;;;;28.17;56.96;100655.81;5060530;28;20490;-64
2023/07/22 01:00:16;;;;;;;12.17;7.40;;;;;;;28.08;57.35;100651.22;5068925;28;20302;-63
2023/07/22 01:02:47;;;;;;;19.57;7.43;;;;;;;27.99;57.04;100657.38;5071115;28;20055;-63
2023/07/22 01:05:17;;;;;;;13.70;6.93;;;;;;;27.75;56.43;100624.31;5070627;28;20526;-62
2023/07/22 01:07:48;;;;;;;14.50;6.70;;;;;;;27.83;58.17;100642.53;5059141;28;20048;-62
2023/07/22 01:10:19;;;;;;;13.73;6.73;;;;;;;27.95;58.99;100633.44;5069371;28;20097;-62
2023/07/22 01:12:50;;;;;;;13.23;7.23;;;;;;;28.13;57.06;100640.94;5059837;28;20052;-62
2023/07/22 01:15:22;;;;;;;12.90;6.93;;;;;;;28.36;54.13;100642.53;5069915;28;20067;-59
2023/07/22 01:17:55;;;;;;;11.43;6.87;;;;;;;28.47;52.45;100635.41;5059694;28;20062;-63
2023/07/22 01:20:26;;;;;;;11.03;6.23;;;;;;;28.57;52.17;100641.72;5069563;28;20083;-64
2023/07/22 01:22:59;;;;;;;13.33;6.70;;;;;;;28.56;51.66;100634.63;5058785;28;20058;-63
2023/07/22 01:25:30;;;;;;;15.00;7.67;;;;;;;28.37;51.62;100632.63;5069781;28;20432;-63
2023/07/22 01:28:01;;;;;;;13.93;7.70;;;;;;;28.30;52.23;100623.38;5059596;28;20053;-59
2023/07/22 01:30:32;;;;;;;12.27;6.80;;;;;;;28.48;51.88;100626.38;5071461;28;20043;-63
2023/07/22 01:33:03;;;;;;;16.43;7.97;;;;;;;28.59;51.99;100629.00;5063719;28;20523;-61
2023/07/22 01:35:34;;;;;;;12.43;7.20;;;;;;;28.66;51.71;100627.47;5073328;28;20052;-59
2023/07/22 01:38:07;;;;;;;12.77;9.20;;;;;;;28.64;50.85;100633.97;5062514;28;20107;-64
2023/07/22 01:40:38;;;;;;;15.97;7.73;;;;;;;28.47;50.13;100609.38;5075856;28;20066;-61
2023/07/22 01:43:09;;;;;;;10.73;6.90;;;;;;;28.68;50.78;100628.22;5064762;28;20092;-59
2023/07/22 01:45:39;;;;;;;17.13;8.30;;;;;;;28.79;50.49;100625.41;5074598;28;20409;-62
2023/07/22 01:48:10;;;;;;;18.43;7.27;;;;;;;28.90;49.07;100611.00;5062669;28;20458;-61
2023/07/22 01:50:41;;;;;;;16.20;7.80;;;;;;;29.16;50.78;100616.81;5070467;28;20379;-60
2023/07/22 01:53:13;;;;;;;14.90;6.57;;;;;;;29.46;50.56;100609.69;5073488;28;20058;-59
2023/07/22 01:55:44;;;;;;;12.33;8.67;;;;;;;29.54;49.29;100604.44;5063910;28;20130;-63
2023/07/22 01:58:14;;;;;;;13.30;6.40;;;;;;;29.62;48.71;100601.91;5073283;28;20043;-60
2023/07/22 02:00:45;;;;;;;11.83;6.27;;;;;;;29.69;48.11;100601.38;5060318;28;20116;-61
2023/07/22 02:03:16;;;;;;;11.33;6.67;;;;;;;29.71;47.50;100600.25;5073377;28;20051;-63
2023/07/22 02:05:47;;;;;;;13.70;6.50;;;;;;;29.72;47.09;100595.72;5063253;28;20062;-63
2023/07/22 02:08:19;;;;;;;10.13;6.00;;;;;;;29.74;48.08;100605.34;5074363;28;20032;-58
2023/07/22 02:10:50;;;;;;;14.13;6.10;;;;;;;29.83;48.29;100592.84;5062664;28;20056;-60
2023/07/22 02:13:20;;;;;;;12.57;6.47;;;;;;;29.84;46.75;100605.34;5075128;28;20059;-60
2023/07/22 02:15:51;;;;;;;14.53;6.17;;;;;;;29.64;47.46;100602.59;5064244;28;20436;-61
2023/07/22 02:18:22;;;;;;;12.27;5.73;;;;;;;29.37;47.87;100618.56;5073617;28;20139;-58
2023/07/22 02:20:53;;;;;;;10.70;6.27;;;;;;;29.16;48.14;100608.75;5063216;28;20064;-60
2023/07/22 02:23:26;;;;;;;8.47;6.07;;;;;;;28.94;48.02;100590.09;5072797;28;20052;-60
2023/07/22 02:25:56;;;;;;;11.20;5.50;;;;;;;29.16;48.56;100611.44;5062305;28;20431;-62
2023/07/22 02:28:27;;;;;;;11.90;6.73;;;;;;;29.33;48.11;100604.56;5072659;28;20355;-62
2023/07/22 02:31:02;;;;;;;15.03;6.40;;;;;;;29.48;47.48;100588.88;5063607;28;20050;-64
2023/07/22 02:33:32;;;;;;;8.90;6.13;;;;;;;29.61;47.35;100586.75;5075006;28;20108;-65
2023/07/22 02:36:03;;;;;;;11.27;6.20;;;;;;;29.72;47.16;100590.31;5062320;28;20059;-60
2023/07/22 02:38:36;;;;;;;15.30;6.23;;;;;;;29.64;46.22;100567.59;5073416;28;20112;-62
2023/07/22 02:41:07;;;;;;;10.50;5.97;;;;;;;29.64;47.41;100550.59;5062304;28;20052;-63
2023/07/22 02:43:38;;;;;;;7.50;5.90;;;;;;;30.00;46.15;100578.66;5071449;28;20056;-63
2023/07/22 02:46:09;;;;;;;9.47;6.13;;;;;;;30.00;45.98;100589.44;5062096;28;20052;-62
2023/07/22 02:48:40;;;;;;;11.20;6.00;;;;;;;29.76;45.18;100564.81;5073071;28;20061;-61
2023/07/22 02:51:11;;;;;;;12.00;5.50;;;;;;;29.83;46.20;100587.47;5061556;28;20113;-63
2023/07/22 02:53:46;;;;;;;9.27;5.90;;;;;;;29.87;45.53;100591.59;5064171;28;20028;-61
2023/07/22 02:56:17;;;;;;;11.43;6.10;;;;;;;29.84;45.33;100600.81;5071977;28;20048;-62
2023/07/22 02:58:47;;;;;;;10.33;5.77;;;;;;;29.75;45.34;100598.94;5061392;28;20493;-63
2023/07/22 03:01:18;;;;;;;10.50;5.87;;;;;;;29.67;45.32;100596.97;5072712;28;20079;-64
2023/07/22 03:03:50;;;;;;;11.07;5.80;;;;;;;29.74;46.04;100593.72;5062072;28;20112;-66
2023/07/22 03:06:20;;;;;;;10.97;5.90;;;;;;;29.79;46.04;100586.06;5071290;28;20052;-63
2023/07/22 03:08:53;;;;;;;10.87;5.90;;;;;;;29.65;45.96;100558.59;5061832;28;20427;-63
2023/07/22 03:11:25;;;;;;;9.00;5.23;;;;;;;29.86;46.47;100581.81;5073948;28;20468;-61
2023/07/22 03:13:55;;;;;;;10.67;6.00;;;;;;;30.00;46.96;100589.44;5062476;28;20079;-63
2023/07/22 03:16:26;;;;;;;7.67;5.23;;;;;;;29.91;46.73;100595.72;5072906;28;20059;-62
2023/07/22 03:18:57;;;;;;;9.93;6.03;;;;;;;29.69;47.25;100579.84;5063053;28;20066;-59
2023/07/22 03:21:27;;;;;;;8.50;5.50;;;;;;;29.41;46.79;100590.41;5071660;28;20489;-61
2023/07/22 03:24:00;;;;;;;7.20;4.90;;;;;;;29.15;46.86;100587.34;5061541;28;20059;-60
2023/07/22 03:26:30;;;;;;;17.17;5.70;;;;;;;28.98;47.15;100591.50;5072591;28;20103;-61
2023/07/22 03:29:01;;;;;;;9.17;5.70;;;;;;;28.92;46.93;100581.31;5063548;28;20910;-63
2023/07/22 03:31:31;;;;;;;7.97;5.47;;;;;;;28.97;47.70;100584.44;5072618;28;20374;-60
2023/07/22 03:34:02;;;;;;;8.43;5.70;;;;;;;28.90;47.25;100556.38;5060876;28;20050;-62
2023/07/22 03:36:35;;;;;;;10.73;5.77;;;;;;;29.18;47.14;100576.31;5073370;28;20055;-61
2023/07/22 03:39:07;;;;;;;12.50;5.80;;;;;;;29.36;46.67;100579.22;5061670;28;20052;-65
2023/07/22 03:41:38;;;;;;;10.37;5.93;;;;;;;29.41;46.45;100571.56;5072004;28;20043;-64
2023/07/22 03:44:08;;;;;;;14.37;5.67;;;;;;;29.34;44.76;100570.41;5060863;28;20062;-61
2023/07/22 03:46:39;;;;;;;10.37;5.67;;;;;;;29.20;45.49;100580.56;5071365;28;20066;-63
2023/07/22 03:49:09;;;;;;;11.70;5.70;;;;;;;29.04;45.66;100574.84;5061310;28;20056;-65
2023/07/22 03:51:40;;;;;;;9.60;6.00;;;;;;;29.05;45.00;100587.28;5070849;28;20458;-63
2023/07/22 03:54:13;;;;;;;14.97;6.23;;;;;;;29.20;45.86;100585.09;5059356;28;20048;-63
2023/07/22 03:56:45;;;;;;;15.00;6.27;;;;;;;29.26;45.63;100591.78;5060263;28;20059;-64
2023/07/22 03:59:15;;;;;;;16.77;6.23;;;;;;;29.28;45.77;100581.72;5071436;28;20067;-60
2023/07/22 04:01:46;;;;;;;13.07;6.03;;;;;;;29.21;45.21;100587.66;5061523;28;20048;-63
2023/07/22 04:04:17;;;;;;;13.47;6.13;;;;;;;29.09;46.09;100591.44;5071488;28;20446;-62
2023/07/22 04:06:47;;;;;;;9.47;5.50;;;;;;;28.98;47.63;100591.50;5061645;28;20063;-62
2023/07/22 04:09:22;;;;;;;21.93;5.93;;;;;;;28.87;46.96;100588.94;5071187;28;20087;-60
2023/07/22 04:11:54;;;;;;;16.20;5.60;;;;;;;29.00;48.50;100584.16;5061699;28;20048;-65
2023/07/22 04:14:25;;;;;;;24.40;6.77;;;;;;;29.32;49.10;100583.16;5071485;28;20053;-61
2023/07/22 04:16:55;;;;;;;23.07;6.23;;;;;;;29.53;47.84;100575.84;5059875;28;20064;-62
2023/07/22 04:19:26;;;;;;;12.03;5.33;;;;;;;29.59;47.83;100586.03;5071606;28;20993;-62
2023/07/22 04:22:03;;;;;;;8.20;5.20;;;;;;;29.54;49.06;100569.44;5060143;28;20471;-62
2023/07/22 04:24:36;;;;;;;9.27;5.67;;;;;;;29.77;50.01;100578.13;5070385;28;20054;-62
2023/07/22 04:27:07;;;;;;;13.90;5.47;;;;;;;29.89;50.15;100581.53;5059877;28;20101;-58
2023/07/22 04:29:38;;;;;;;8.40;5.50;;;;;;;29.83;49.92;100536.28;5071738;28;20470;-60
2023/07/22 04:32:09;;;;;;;13.33;5.50;;;;;;;30.17;49.90;100562.78;5061046;28;20083;-61
2023/07/22 04:34:40;;;;;;;14.67;5.33;;;;;;;30.25;49.13;100560.22;5070454;28;20056;-62
2023/07/22 04:37:10;;;;;;;10.10;5.20;;;;;;;30.23;49.13;100551.41;5060995;28;20058;-65
2023/07/22 04:39:42;;;;;;;9.50;4.97;;;;;;;30.28;48.74;100557.28;5068829;28;20040;-62
2023/07/22 04:42:13;;;;;;;9.87;5.40;;;;;;;30.31;48.52;100554.28;5069915;28;20078;-64
2023/07/22 04:44:44;;;;;;;9.07;5.70;;;;;;;30.31;49.06;100562.38;5059402;28;20048;-62
2023/07/22 04:47:14;;;;;;;10.73;5.60;;;;;;;30.09;48.96;100561.66;5071705;28;20051;-63
2023/07/22 04:49:45;;;;;;;15.20;6.47;;;;;;;29.97;48.80;100560.09;5060592;28;20051;-61
2023/07/22 04:52:15;;;;;;;16.10;6.47;;;;;;;29.75;48.59;100546.94;5070487;28;20058;-61
2023/07/22 04:54:48;;;;;;;11.40;6.00;;;;;;;29.68;48.83;100552.06;5060770;28;20067;-64
2023/07/22 04:57:19;;;;;;;13.67;5.80;;;;;;;29.60;48.52;100544.63;5070688;28;20060;-61
2023/07/22 04:59:50;;;;;;;13.47;6.07;;;;;;;29.66;49.10;100536.03;5059982;28;20059;-62
2023/07/22 05:02:20;;;;;;;17.93;6.30;;;;;;;29.80;49.33;100539.28;5069815;28;20079;-60
2023/07/22 05:04:51;;;;;;;9.53;5.37;;;;;;;29.92;49.25;100537.28;5061102;28;20047;-64
2023/07/22 05:07:22;;;;;;;14.77;7.67;;;;;;;29.99;49.87;100530.34;5069900;28;20055;-64
2023/07/22 05:09:55;;;;;;;15.30;6.10;;;;;;;30.12;49.60;100530.03;5060204;28;20104;-61
2023/07/22 05:12:25;;;;;;;17.10;6.33;;;;;;;30.15;49.05;100521.66;5070334;28;20434;-61
2023/07/22 05:14:56;;;;;;;8.50;5.50;;;;;;;30.16;48.84;100517.97;5058455;28;20458;-62
2023/07/22 05:17:29;;;;;;;11.07;5.77;;;;;;;30.23;47.93;100519.06;5071397;28;20044;-63
2023/07/22 05:20:00;;;;;;;14.10;5.87;;;;;;;30.11;47.67;100513.00;5058895;28;20040;-63
2023/07/22 05:22:30;;;;;;;12.53;6.37;;;;;;;30.21;48.42;100521.09;5069667;28;20057;-61
2023/07/22 05:25:07;;;;;;;13.67;5.60;;;;;;;30.01;48.71;100488.78;5059642;28;20066;-61
2023/07/22 05:27:38;;;;;;;17.20;5.93;;;;;;;30.27;49.86;100515.13;5069492;28;20105;-63
2023/07/22 05:30:10;;;;;;;16.57;5.80;;;;;;;30.18;47.74;100515.97;5058602;28;20861;-64
2023/07/22 05:33:01;;;;;;;9.97;6.00;;;;;;;30.13;47.80;100507.47;5058742;28;20050;-66
2023/07/22 05:35:31;;;;;;;10.03;5.77;;;;;;;30.16;48.16;100491.03;5068963;28;20039;-63
2023/07/22 05:38:04;;;;;;;12.57;5.60;;;;;;;30.26;47.71;100491.88;5058944;28;20046;-62
2023/07/22 05:40:36;;;;;;;9.13;5.47;;;;;;;30.38;47.07;100490.69;5069520;28;20039;-61
2023/07/22 05:43:07;;;;;;;12.67;5.80;;;;;;;30.56;46.04;100503.41;5061067;28;20887;-64
2023/07/22 05:45:37;;;;;;;10.40;5.73;;;;;;;30.48;44.94;100496.91;5069883;28;20048;-64
2023/07/22 05:48:08;;;;;;;8.13;5.40;;;;;;;30.37;45.61;100488.13;5059558;28;20127;-62
2023/07/22 05:50:38;;;;;;;9.37;6.00;;;;;;;30.36;45.41;100498.06;5069045;28;20055;-63
2023/07/22 05:53:09;;;;;;;10.07;5.93;;;;;;;30.27;46.01;100489.00;5059959;28;20047;-65
2023/07/22 05:55:42;;;;;;;11.63;5.20;;;;;;;30.22;45.40;100491.25;5069859;28;20088;-61
2023/07/22 05:58:18;;;;;;;9.33;5.70;;;;;;;30.19;46.39;100485.34;5069693;28;20500;-63
2023/07/22 06:00:51;;;;;;;8.90;5.53;;;;;;;30.07;46.17;100482.78;5059904;28;20062;-64
2023/07/22 06:03:22;;;;;;;6.60;5.23;;;;;;;30.12;46.95;100482.38;5070287;28;20040;-62
2023/07/22 06:05:53;;;;;;;8.87;5.30;;;;;;;30.20;46.64;100484.31;5060352;28;20048;-61
2023/07/22 06:08:23;;;;;;;9.77;5.40;;;;;;;30.16;45.88;100491.03;5068427;28;20118;-62
2023/07/22 06:10:55;;;;;;;11.43;5.43;;;;;;;30.18;46.66;100489.88;5059637;28;20132;-63
2023/07/22 06:13:26;;;;;;;7.73;5.63;;;;;;;30.17;45.73;100498.94;5069946;28;20074;-65
2023/07/22 06:15:57;;;;;;;13.37;5.60;;;;;;;30.19;45.39;100496.13;5058784;28;20543;-65
2023/07/22 06:18:28;;;;;;;9.50;5.47;;;;;;;30.17;45.35;100487.31;5072672;28;20123;-63
2023/07/22 06:20:59;;;;;;;14.27;6.63;;;;;;;30.12;45.33;100500.38;5061868;28;20056;-62
2023/07/22 06:23:30;;;;;;;11.13;5.73;;;;;;;30.15;45.35;100489.31;5073113;28;20147;-64
2023/07/22 06:26:02;;;;;;;18.13;6.37;;;;;;;30.20;45.82;100481.63;5062289;28;20117;-64
2023/07/22 06:28:32;;;;;;;10.87;5.83;;;;;;;30.23;46.07;100475.94;5072457;28;20055;-61
2023/07/22 06:31:03;;;;;;;9.70;5.93;;;;;;;30.08;45.63;100479.13;5061670;28;20089;-59
2023/07/22 06:33:34;;;;;;;12.63;5.90;;;;;;;29.96;46.81;100472.22;5072319;28;20130;-62
2023/07/22 06:36:05;;;;;;;10.27;6.07;;;;;;;29.88;46.82;100478.31;5063436;28;20374;-62
2023/07/22 06:38:35;;;;;;;10.30;5.90;;;;;;;29.71;46.58;100486.28;5072736;28;20043;-66
2023/07/22 06:41:07;;;;;;;14.27;6.27;;;;;;;29.66;46.69;100500.19;5059695;28;20416;-62
2023/07/22 06:43:38;;;;;;;13.30;5.77;;;;;;;29.63;46.92;100500.41;5071793;28;20499;-63
2023/07/22 06:46:09;;;;;;;12.97;5.93;;;;;;;29.50;46.06;100511.47;5062279;28;20056;-62
2023/07/22 06:48:39;;;;;;;8.73;5.80;;;;;;;29.47;46.89;100519.84;5073564;28;20040;-62
2023/07/22 06:51:10;;;;;;;10.43;6.10;;;;;;;29.43;47.04;100499.56;5061027;28;20052;-62
2023/07/22 06:53:40;;;;;;;10.40;5.90;;;;;;;29.45;47.03;100513.75;5069653;28;20059;-65
2023/07/22 06:56:13;;;;;;;11.47;6.40;;;;;;;29.38;46.59;100513.47;5062391;28;20051;-62
2023/07/22 06:58:43;;;;;;;13.17;6.97;;;;;;;29.31;46.24;100522.25;5062645;28;20371;-62
2023/07/22 07:01:14;;;;;;;11.00;7.13;;;;;;;28.91;46.96;100472.03;5072978;28;20058;-64
2023/07/22 07:03:45;;;;;;;14.90;7.97;;;;;;;29.42;47.74;100535.56;5062720;28;20086;-66
2023/07/22 07:06:15;;;;;;;13.77;7.20;;;;;;;29.45;45.92;100548.75;5071450;28;20056;-64
2023/07/22 07:08:46;;;;;;;9.40;7.03;;;;;;;29.37;45.12;100543.22;5061741;28;20043;-62
2023/07/22 07:11:21;;;;;;;18.30;11.10;;;;;;;29.23;46.21;100537.25;5073850;28;20064;-61
2023/07/22 07:13:51;;;;;;;18.40;8.67;;;;;;;29.06;46.86;100540.63;5063320;28;20054;-61
2023/07/22 07:16:24;;;;;;;13.13;7.33;;;;;;;28.71;46.26;100536.50;5072290;28;20048;-62
2023/07/22 07:18:56;;;;;;;14.10;8.03;;;;;;;28.14;46.70;100505.66;5060729;28;20043;-64
2023/07/22 07:21:27;;;;;;;11.00;7.23;;;;;;;28.11;47.08;100546.22;5072254;28;20052;-62
2023/07/22 07:23:57;;;;;;;14.63;7.70;;;;;;;27.95;47.23;100555.56;5061716;28;20098;-60
2023/07/22 07:26:29;;;;;;;12.63;8.07;;;;;;;27.86;47.43;100564.41;5072321;28;20066;-61
2023/07/22 07:29:00;;;;;;;21.27;8.30;;;;;;;27.76;47.64;100566.13;5061601;28;20060;-64
2023/07/22 07:31:31;;;;;;;38.27;8.83;;;;;;;27.65;47.78;100568.84;5072035;28;20052;-58
2023/07/22 07:34:02;;;;;;;14.97;7.63;;;;;;;27.31;48.06;100523.34;5063001;28;20186;-63
2023/07/22 07:36:34;;;;;;;13.90;8.20;;;;;;;27.48;49.16;100557.69;5071607;28;20052;-61
2023/07/22 07:39:04;;;;;;;14.53;8.53;;;;;;;27.44;49.00;100561.59;5061024;28;20105;-65
2023/07/22 07:41:37;;;;;;;14.20;8.73;;;;;;;27.33;49.37;100558.94;5072098;28;20070;-63
2023/07/22 07:44:08;;;;;;;15.07;8.73;;;;;;;27.29;49.46;100552.13;5060876;28;20052;-63
2023/07/22 07:46:39;;;;;;;14.40;8.43;;;;;;;27.28;49.50;100550.41;5071495;28;20113;-64
2023/07/22 07:49:09;;;;;;;15.77;8.57;;;;;;;27.22;50.18;100538.38;5061376;28;20113;-61
2023/07/22 07:51:39;;;;;;;11.30;7.33;;;;;;;27.11;50.61;100539.22;5070835;28;20051;-62
2023/07/22 07:54:10;;;;;;;21.07;8.93;;;;;;;26.97;50.89;100544.84;5060164;28;20055;-61
2023/07/22 07:56:42;;;;;;;21.53;8.20;;;;;;;26.89;51.29;100544.63;5071507;28;20066;-64
2023/07/22 07:59:13;;;;;;;18.77;8.07;;;;;;;26.77;51.80;100540.25;5060138;28;20100;-64
2023/07/22 08:01:43;;;;;;;14.97;8.17;;;;;;;26.59;52.61;100548.78;5060029;28;20055;-62
2023/07/22 08:04:14;;;;;;;16.60;8.17;;;;;;;26.49;52.92;100547.75;5072587;28;20572;-62
2023/07/22 08:06:45;;;;;;;12.83;7.87;;;;;;;26.39;53.14;100562.84;5061860;28;20052;-61
2023/07/22 08:09:19;;;;;;;14.13;7.57;;;;;;;26.28;54.32;100560.97;5070967;28;20058;-61
2023/07/22 08:11:51;;;;;;;15.80;8.20;;;;;;;26.19;54.28;100567.06;5060608;28;20059;-62
2023/07/22 08:14:22;;;;;;;20.70;9.23;;;;;;;26.18;54.60;100571.56;5070867;28;20477;-63
2023/07/22 08:16:53;;;;;;;21.77;9.50;;;;;;;26.13;55.51;100557.66;5061695;28;20603;-62
2023/07/22 08:19:23;;;;;;;21.00;8.27;;;;;;;26.03;56.00;100552.19;5070844;28;20051;-63
2023/07/22 08:21:54;;;;;;;36.67;20.93;;;;;;;26.01;56.69;100550.59;5061783;28;20116;-63
2023/07/22 08:24:25;;;;;;;41.20;20.47;;;;;;;25.94;57.17;100546.69;5070621;28;20124;-64
2023/07/22 08:26:57;;;;;;;27.10;13.37;;;;;;;25.89;57.72;100544.34;5060528;28;20052;-65
2023/07/22 08:29:28;;;;;;;19.83;8.93;;;;;;;25.78;58.42;100538.91;5070345;28;20461;-63
2023/07/22 08:31:58;;;;;;;18.57;8.17;;;;;;;25.80;58.68;100551.22;5059418;28;20050;-64
2023/07/22 08:34:29;;;;;;;35.70;9.87;;;;;;;25.71;58.98;100546.56;5071101;28;20083;-64
2023/07/22 08:36:59;;;;;;;33.57;9.13;;;;;;;25.66;59.31;100551.41;5060143;28;20058;-62
2023/07/22 08:39:30;;;;;;;24.80;8.33;;;;;;;25.51;59.60;100533.81;5070048;28;20051;-62
2023/07/22 08:42:06;;;;;;;18.30;8.97;;;;;;;25.46;59.58;100552.03;5058675;28;20076;-64
2023/07/22 08:44:42;;;;;;;25.23;8.93;;;;;;;25.28;58.88;100541.72;5070247;28;20051;-66
2023/07/22 08:47:17;;;;;;;38.00;23.93;;;;;;;25.03;58.78;100528.41;5059136;28;20090;-64
2023/07/22 08:49:53;;;;;;;25.97;14.07;;;;;;;25.05;59.29;100553.22;5060347;28;20032;-64
2023/07/22 08:52:24;;;;;;;277.33;216.67;;;;;;;24.97;59.64;100554.63;5070528;28;20196;-63
2023/07/22 08:54:56;;;;;;;557.33;477.07;;;;;;;24.60;60.26;100512.81;5060381;28;20062;-63
2023/07/22 08:57:31;;;;;;;258.20;203.50;;;;;;;24.73;60.74;100553.69;5070107;28;20083;-64
2023/07/22 09:00:05;;;;;;;350.87;286.73;;;;;;;24.74;61.49;100579.47;5059713;28;20286;-61
2023/07/22 09:06:02;;;;;;;71.00;50.97;;;;;;;24.52;61.91;100578.31;4997848;28;20474;-64
2023/07/22 09:08:35;;;;;;;40.77;15.40;;;;;;;24.49;62.34;100578.53;5009032;28;20128;-65
2023/07/22 09:11:07;;;;;;;29.50;14.00;;;;;;;24.40;62.30;100589.81;4999823;28;20052;-64
2023/07/22 09:13:43;;;;;;;24.73;13.50;;;;;;;24.32;61.96;100592.16;5009881;28;20054;-62
2023/07/22 09:16:17;;;;;;;23.63;10.23;;;;;;;24.30;61.26;100578.91;4997056;28;20052;-63
2023/07/22 09:18:49;;;;;;;22.20;9.67;;;;;;;24.24;61.33;100575.81;4999091;28;20085;-64
2023/07/22 09:21:22;;;;;;;23.60;9.70;;;;;;;24.23;61.31;100576.75;5007965;28;20057;-62
2023/07/22 09:23:57;;;;;;;15.83;8.60;;;;;;;23.74;61.27;100521.34;4997356;28;20081;-60
2023/07/22 09:26:29;;;;;;;27.93;8.63;;;;;;;24.13;61.37;100587.22;5008177;28;20064;-62
2023/07/22 09:29:03;;;;;;;13.47;6.93;;;;;;;24.16;61.08;100583.47;4998488;28;20501;-63
2023/07/22 09:31:50;;;;;;;18.57;7.37;;;;;;;24.21;60.96;100589.34;5008000;28;20055;-62
2023/07/22 09:34:22;;;;;;;21.33;7.90;;;;;;;24.09;60.62;100548.34;4996827;28;20193;-62
2023/07/22 09:36:55;;;;;;;17.17;6.70;;;;;;;24.30;60.57;100586.91;4998371;28;20052;-63
2023/07/22 09:39:27;;;;;;;15.70;6.77;;;;;;;24.03;60.67;100560.28;5008522;28;20335;-64
2023/07/22 09:42:01;;;;;;;16.50;6.60;;;;;;;24.17;60.65;100587.88;4998131;28;20057;-61
2023/07/22 09:44:37;;;;;;;13.43;6.17;;;;;;;24.09;61.01;100591.91;5065556;28;20055;-63
2023/07/22 09:47:14;;;;;;;15.77;6.43;;;;;;;23.96;61.62;100595.50;5058880;28;20184;-63
2023/07/22 09:49:47;;;;;;;14.50;6.40;;;;;;;23.80;61.63;100575.19;5058883;28;20063;-65
2023/07/22 09:52:20;;;;;;;13.13;5.90;;;;;;;23.66;61.82;100578.75;5069926;28;20357;-63
2023/07/22 09:54:52;;;;;;;12.80;6.20;;;;;;;23.51;62.54;100582.41;5063769;28;20048;-63
2023/07/22 09:57:25;;;;;;;9.47;5.63;;;;;;;23.35;63.01;100573.69;5073555;28;20063;-62
2023/07/22 09:59:59;;;;;;;11.27;5.63;;;;;;;23.16;63.12;100550.88;5064037;28;20075;-65
2023/07/22 10:02:33;;;;;;;10.77;5.60;;;;;;;23.21;63.70;100580.78;5073489;28;20051;-63
2023/07/22 10:05:05;;;;;;;9.87;5.20;;;;;;;23.12;64.60;100578.69;5063422;28;20150;-61
2023/07/22 10:07:40;;;;;;;14.07;6.03;;;;;;;22.99;65.01;100569.78;5074939;28;20509;-64
2023/07/22 10:10:14;;;;;;;9.37;5.87;;;;;;;22.91;65.51;100572.03;5061439;28;20510;-63
2023/07/22 10:12:47;;;;;;;9.40;6.00;;;;;;;22.88;66.00;100569.56;5063159;28;20461;-63
2023/07/22 10:15:20;;;;;;;17.37;6.80;;;;;;;22.71;66.58;100579.44;5073160;28;20055;-64
2023/07/22 10:17:53;;;;;;;12.73;5.90;;;;;;;22.63;67.00;100580.88;5063202;28;20036;-61
2023/07/22 10:20:26;;;;;;;12.17;5.53;;;;;;;22.34;67.11;100560.44;5072927;28;20059;-61
2023/07/22 10:22:58;;;;;;;11.10;5.67;;;;;;;22.34;67.70;100571.06;5063065;28;20135;-61
2023/07/22 10:25:30;;;;;;;11.50;5.60;;;;;;;22.47;67.91;100596.94;5073610;28;20059;-63
2023/07/22 10:28:02;;;;;;;15.87;6.17;;;;;;;22.42;68.63;100599.03;5063177;28;20080;-62
2023/07/22 10:30:36;;;;;;;15.23;5.60;;;;;;;22.33;68.55;100595.97;5073607;28;20052;-63
2023/07/22 10:33:08;;;;;;;12.10;5.87;;;;;;;22.12;69.13;100576.78;5061408;28;20143;-63
2023/07/22 10:35:45;;;;;;;9.97;6.13;;;;;;;22.23;69.55;100610.78;5072287;28;20056;-62
2023/07/22 10:38:17;;;;;;;10.43;5.33;;;;;;;22.21;69.56;100604.69;5062317;28;20059;-64
2023/07/22 10:40:52;;;;;;;14.63;5.40;;;;;;;22.16;69.90;100604.06;5062984;28;20285;-61
2023/07/22 10:43:28;;;;;;;10.10;5.17;;;;;;;22.12;70.13;100602.56;5071865;28;20067;-65
2023/07/22 10:46:10;;;;;;;9.00;5.63;;;;;;;22.04;70.41;100599.47;5062325;28;20131;-64
2023/07/22 10:48:43;;;;;;;9.87;5.40;;;;;;;22.09;70.35;100611.56;5071045;28;20103;-62
2023/07/22 10:51:17;;;;;;;8.87;4.73;;;;;;;22.01;71.12;100610.28;5072800;28;20661;-66
2023/07/22 10:53:50;;;;;;;12.23;6.27;;;;;;;21.92;71.71;100601.91;5061519;28;20799;-63
2023/07/22 10:56:24;;;;;;;10.83;5.73;;;;;;;21.86;72.25;100618.22;5073213;28;20654;-62
2023/07/22 10:59:01;;;;;;;10.00;5.73;;;;;;;21.83;72.43;100618.41;5061663;28;20151;-65
2023/07/22 11:01:39;;;;;;;10.77;5.73;;;;;;;21.70;72.98;100620.06;5073612;28;20058;-63
2023/07/22 11:04:13;;;;;;;7.82;5.18;;;;;;;21.70;73.71;100623.56;5062445;28;20286;-64
2023/07/22 11:06:59;;;;;;;10.97;5.40;;;;;;;21.64;74.11;100629.25;5062786;28;20561;-63
2023/07/22 11:09:47;;;;;;;15.57;6.20;;;;;;;21.53;74.29;100621.84;5073095;28;20850;-63
2023/07/22 11:12:21;;;;;;;9.90;5.03;;;;;;;21.59;74.50;100635.75;5061157;28;20320;-61
2023/07/22 11:14:54;;;;;;;16.53;5.90;;;;;;;21.50;74.90;100632.66;5063522;28;20385;-62
2023/07/22 11:17:33;;;;;;;14.27;5.87;;;;;;;21.53;75.14;100642.28;5071053;28;20297;-63
2023/07/22 11:20:04;;;;;;;;;;;;;;;21.51;75.30;100642.34;5061040;28;20317;-64
2023/07/22 11:22:36;;;;;;;9.10;5.70;;;;;;;21.48;75.67;100633.69;5072768;28;19916;-64
2023/07/22 11:25:18;;;;;;;11.07;5.60;;;;;;;21.46;75.95;100636.44;5061165;28;20744;-63
2023/07/22 11:27:51;;;;;;;13.40;5.90;;;;;;;21.45;76.24;100650.69;5061501;28;20839;-62
2023/07/22 11:30:26;;;;;;;11.37;5.90;;;;;;;21.41;76.47;100649.13;5071903;28;20151;-63
2023/07/22 11:33:02;;;;;;;12.30;5.50;;;;;;;21.38;76.62;100638.63;5062071;28;20289;-64
2023/07/22 11:35:34;;;;;;;10.10;5.67;;;;;;;21.36;76.93;100640.50;5070429;28;20812;-60
2023/07/22 11:38:06;;;;;;;7.23;5.20;;;;;;;21.31;76.83;100627.47;5061748;28;20285;-63
2023/07/22 11:40:38;;;;;;;12.93;6.17;;;;;;;21.39;76.97;100639.53;5072787;28;20261;-64
2023/07/22 11:43:10;;;;;;;10.40;5.50;;;;;;;21.35;77.60;100648.59;5061710;28;20286;-63
2023/07/22 11:45:42;;;;;;;10.73;5.50;;;;;;;21.28;77.81;100632.13;5073347;28;20392;-61